createdAt,value
2022-10-04T00:02:07.329Z,1.00
2022-10-04T00:07:20.386Z,1.00
2022-10-04T00:12:29.343Z,1.00
2022-10-04T00:17:35.557Z,1.00
2022-10-04T00:22:38.289Z,1.00
2022-10-04T00:28:27.861Z,1.00
2022-10-04T00:33:37.960Z,1.00
2022-10-04T00:38:41.040Z,1.00
2022-10-04T00:43:48.124Z,1.00
2022-10-04T00:48:54.103Z,1.00
2022-10-04T00:54:06.691Z,1.00
2022-10-04T00:59:27.651Z,1.00
2022-10-04T01:04:40.656Z,1.00
2022-10-04T01:09:51.147Z,1.00
2022-10-04T01:15:01.688Z,1.00
2022-10-04T01:20:05.041Z,1.00
2022-10-04T01:25:09.486Z,1.00
2022-10-04T01:30:14.533Z,1.00
2022-10-04T01:35:20.352Z,1.00
2022-10-04T01:40:24.971Z,1.00
2022-10-04T01:45:33.903Z,1.00
2022-10-04T01:50:41.413Z,1.00
2022-10-04T01:55:49.527Z,1.00
2022-10-04T02:00:57.959Z,1.00
2022-10-04T02:06:04.871Z,1.00
2022-10-04T02:11:09.792Z,1.00
2022-10-04T02:16:13.390Z,1.00
2022-10-04T02:21:17.425Z,1.00
2022-10-04T02:26:21.677Z,1.00
2022-10-04T02:31:42.913Z,1.00
2022-10-04T02:36:47.983Z,1.00
2022-10-04T02:41:56.768Z,1.00
2022-10-04T02:47:08.698Z,1.00
2022-10-04T02:52:17.329Z,1.00
2022-10-04T02:57:23.158Z,1.00
2022-10-04T03:02:30.064Z,1.00
2022-10-04T03:07:35.637Z,1.00
2022-10-04T03:12:40.085Z,1.00
2022-10-04T03:17:44.765Z,1.00
2022-10-04T03:22:49.759Z,1.00
2022-10-04T03:27:54.134Z,1.00
2022-10-04T03:32:57.498Z,1.00
2022-10-04T03:38:03.091Z,1.00
2022-10-04T03:43:07.690Z,1.00
2022-10-04T03:48:15.890Z,1.00
2022-10-04T03:53:29.031Z,1.00
2022-10-04T03:58:33.927Z,1.00
2022-10-04T04:03:51.213Z,1.00
2022-10-04T04:08:56.765Z,1.00
2022-10-04T04:14:05.379Z,1.00
2022-10-04T04:19:14.416Z,1.00
2022-10-04T04:24:24.973Z,1.00
2022-10-04T04:29:34.676Z,1.00
2022-10-04T04:34:52.876Z,1.00
2022-10-04T04:39:56.561Z,1.00
2022-10-04T04:45:04.203Z,1.00
2022-10-04T04:50:12.114Z,1.00
2022-10-04T04:55:19.691Z,1.00
2022-10-04T05:00:28.991Z,1.00
2022-10-04T05:05:33.486Z,1.00
2022-10-04T05:10:36.642Z,1.00
2022-10-04T05:15:42.756Z,1.00
2022-10-04T05:20:50.179Z,1.00
2022-10-04T05:25:53.231Z,1.00
2022-10-04T05:31:11.512Z,1.00
2022-10-04T05:36:39.708Z,1.00
2022-10-04T05:41:52.046Z,1.00
2022-10-04T05:46:57.979Z,1.00
2022-10-04T05:52:03.451Z,1.00
2022-10-04T05:57:33.411Z,1.00
2022-10-04T06:03:01.839Z,1.00
2022-10-04T06:08:10.428Z,1.00
2022-10-04T06:13:29.994Z,1.00
2022-10-04T06:18:59.090Z,1.00
2022-10-04T06:24:06.879Z,1.00
2022-10-04T06:29:15.223Z,1.00
2022-10-04T06:34:51.843Z,1.00
2022-10-04T06:40:13.330Z,1.00
2022-10-04T06:45:29.955Z,99.90
2022-10-04T06:50:39.912Z,99.90
2022-10-04T06:56:15.215Z,99.90
2022-10-04T07:01:27.918Z,99.90
2022-10-04T07:06:37.828Z,13.80
2022-10-04T07:11:50.290Z,41.30
2022-10-04T07:16:57.424Z,1.00
2022-10-04T07:22:18.759Z,79.00
2022-10-04T07:27:28.903Z,99.90
2022-10-04T07:32:36.049Z,99.90
2022-10-04T07:37:52.580Z,99.90
2022-10-04T07:43:01.790Z,1.00
2022-10-04T07:48:11.255Z,1.00
2022-10-04T07:53:17.141Z,1.00
2022-10-04T07:58:34.799Z,99.90
2022-10-04T08:03:52.638Z,99.90
2022-10-04T08:09:29.430Z,99.90
2022-10-04T08:14:52.422Z,1.00
2022-10-04T08:20:03.758Z,1.00
2022-10-04T08:25:16.103Z,99.90
2022-10-04T08:30:20.462Z,1.00
2022-10-04T08:35:34.218Z,1.00
2022-10-04T08:41:06.670Z,1.00
2022-10-04T08:46:44.135Z,1.00
2022-10-04T08:52:30.002Z,51.90
2022-10-04T08:57:56.007Z,1.00
2022-10-04T09:03:31.377Z,1.00
2022-10-04T09:09:13.120Z,99.90
2022-10-04T09:14:32.958Z,1.00
2022-10-04T09:19:47.994Z,1.00
2022-10-04T09:25:28.640Z,1.00
2022-10-04T09:30:53.191Z,1.00
2022-10-04T09:36:07.127Z,1.00
2022-10-04T09:41:35.630Z,1.00
2022-10-04T09:47:19.369Z,99.90
2022-10-04T09:52:37.342Z,99.90
2022-10-04T09:58:03.205Z,1.00
2022-10-04T10:03:30.997Z,1.00
2022-10-04T10:08:43.395Z,1.00
2022-10-04T10:14:18.768Z,1.00
2022-10-04T10:19:57.183Z,1.00
2022-10-04T10:25:18.630Z,1.00
2022-10-04T10:30:25.704Z,99.90
2022-10-04T10:35:45.952Z,99.90
2022-10-04T10:41:10.565Z,99.90
2022-10-04T10:46:28.686Z,99.90
2022-10-04T10:51:58.994Z,99.90
2022-10-04T10:57:10.954Z,99.90
2022-10-04T11:03:12.564Z,99.90
2022-10-04T11:08:49.598Z,99.90
2022-10-04T11:14:28.422Z,99.90
2022-10-04T11:20:21.727Z,99.90
2022-10-04T11:25:57.935Z,99.90
2022-10-04T11:31:40.531Z,99.90
2022-10-04T11:36:57.241Z,99.90
2022-10-04T11:42:13.637Z,99.90
2022-10-04T11:47:29.759Z,99.90
2022-10-04T11:53:10.687Z,99.90
2022-10-04T11:58:22.138Z,99.90
2022-10-04T12:03:47.446Z,99.90
2022-10-04T12:09:04.904Z,99.90
2022-10-04T12:14:24.766Z,99.90
2022-10-04T12:19:55.178Z,99.90
2022-10-04T12:25:29.187Z,99.90
2022-10-04T12:30:55.054Z,99.90
2022-10-04T12:36:15.173Z,99.90
2022-10-04T12:41:31.703Z,99.90
2022-10-04T12:46:44.923Z,99.90
2022-10-04T12:51:59.378Z,99.90
2022-10-04T12:57:17.794Z,99.90
2022-10-04T13:02:36.428Z,99.90
2022-10-04T13:08:11.149Z,99.90
2022-10-04T13:13:37.314Z,99.90
2022-10-04T13:18:49.032Z,99.90
2022-10-04T13:24:04.706Z,99.90
2022-10-04T13:29:21.112Z,99.90
2022-10-04T13:34:36.447Z,99.90
2022-10-04T13:40:05.406Z,99.90
2022-10-04T13:45:24.177Z,99.90
2022-10-04T13:50:39.152Z,99.90
2022-10-04T13:56:14.528Z,99.90
2022-10-04T14:01:59.106Z,99.90
2022-10-04T14:07:38.840Z,99.90
2022-10-04T14:13:19.482Z,99.90
2022-10-04T14:18:59.028Z,99.90
2022-10-04T14:24:40.819Z,99.90
2022-10-04T14:30:08.174Z,99.90
2022-10-04T14:35:16.273Z,99.90
2022-10-04T14:40:40.130Z,99.90
2022-10-04T14:45:56.305Z,99.90
2022-10-04T14:51:15.823Z,99.90
2022-10-04T14:57:03.474Z,99.90
2022-10-04T15:02:19.670Z,99.90
2022-10-04T15:07:30.460Z,99.90
2022-10-04T15:18:29.002Z,99.90
2022-10-04T15:23:37.745Z,99.90
2022-10-04T15:29:00.495Z,99.90
2022-10-04T15:34:10.708Z,99.90
2022-10-04T15:40:07.043Z,99.90
2022-10-04T15:45:36.201Z,99.90
2022-10-04T15:50:56.462Z,99.90
2022-10-04T15:56:09.783Z,99.90
2022-10-04T16:01:42.546Z,99.90
2022-10-04T16:06:50.999Z,99.90
2022-10-04T16:12:20.049Z,99.90
2022-10-04T16:17:35.033Z,99.90
2022-10-04T16:22:38.232Z,99.90
2022-10-04T16:28:05.795Z,99.90
2022-10-04T16:33:25.332Z,1.00
2022-10-04T16:38:30.504Z,1.00
2022-10-04T16:43:35.571Z,1.00
2022-10-04T16:48:52.623Z,99.90
2022-10-04T16:54:03.521Z,1.00
2022-10-04T16:59:12.068Z,99.90
2022-10-04T17:04:45.096Z,99.90
2022-10-04T17:09:49.825Z,1.00
2022-10-04T17:15:27.464Z,1.00
2022-10-04T17:20:49.822Z,99.90
2022-10-04T17:26:02.231Z,99.90
2022-10-04T17:31:14.987Z,1.00
2022-10-04T17:36:30.041Z,1.00
2022-10-04T17:41:46.465Z,99.90
2022-10-04T17:46:53.780Z,1.00
2022-10-04T17:52:22.533Z,1.00
2022-10-04T17:57:30.690Z,99.90
2022-10-04T18:02:56.701Z,1.00
2022-10-04T18:08:04.027Z,1.00
2022-10-04T18:13:15.633Z,99.90
2022-10-04T18:18:21.421Z,99.90
2022-10-04T18:23:28.165Z,1.00
2022-10-04T18:28:32.531Z,99.90
2022-10-04T18:33:48.175Z,99.90
2022-10-04T18:39:03.993Z,99.90
2022-10-04T18:44:14.001Z,18.90
2022-10-04T18:49:21.030Z,99.90
2022-10-04T18:54:33.582Z,1.00
2022-10-04T19:00:10.051Z,1.00
2022-10-04T19:05:19.220Z,1.00
2022-10-04T19:10:34.484Z,1.00
2022-10-04T19:15:47.385Z,1.00
2022-10-04T19:20:58.748Z,1.00
2022-10-04T19:26:31.236Z,1.00
2022-10-04T19:31:40.257Z,1.00
2022-10-04T19:36:51.195Z,1.00
2022-10-04T19:41:59.595Z,1.00
2022-10-04T19:47:08.975Z,1.00
2022-10-04T19:52:23.100Z,1.00
2022-10-04T19:57:36.883Z,1.00
2022-10-04T20:02:45.988Z,1.00
2022-10-04T20:07:52.819Z,1.00
2022-10-04T20:13:23.297Z,1.00
2022-10-04T20:19:02.282Z,1.00
2022-10-04T20:24:05.328Z,4.30
2022-10-04T20:29:09.735Z,82.20
2022-10-04T20:34:33.307Z,99.90
2022-10-04T20:40:00.394Z,99.90
2022-10-04T20:45:30.354Z,99.90
2022-10-04T20:50:37.097Z,99.90
2022-10-04T20:55:40.307Z,99.90
2022-10-04T21:00:53.770Z,99.90
2022-10-04T21:06:05.417Z,99.90
2022-10-04T21:11:20.886Z,99.90
2022-10-04T21:16:49.303Z,99.90
2022-10-04T21:21:52.253Z,99.90
2022-10-04T21:26:56.694Z,99.90
2022-10-04T21:32:01.018Z,99.90
2022-10-04T21:37:03.767Z,99.90
2022-10-04T21:42:06.892Z,99.90
2022-10-04T21:47:11.016Z,99.90
2022-10-04T21:52:13.760Z,99.90
2022-10-04T21:57:16.479Z,99.90
2022-10-04T22:02:20.667Z,99.90
2022-10-04T22:07:23.456Z,99.90
2022-10-04T22:12:26.731Z,99.90
2022-10-04T22:17:30.864Z,99.90
2022-10-04T22:22:37.548Z,99.90
2022-10-04T22:27:42.870Z,99.90
2022-10-04T22:32:46.985Z,99.90
2022-10-04T22:37:51.803Z,99.90
2022-10-04T22:42:56.899Z,99.90
2022-10-04T22:48:07.792Z,99.90
2022-10-04T22:53:21.839Z,99.90
2022-10-04T22:58:25.017Z,99.90
2022-10-04T23:03:32.327Z,99.90
2022-10-04T23:08:35.552Z,99.90
2022-10-04T23:13:39.291Z,99.90
2022-10-04T23:18:43.819Z,99.90
2022-10-04T23:23:47.944Z,99.90
2022-10-04T23:28:51.252Z,99.90
2022-10-04T23:33:57.876Z,99.90
2022-10-04T23:39:08.737Z,99.90
2022-10-04T23:44:14.879Z,99.90
2022-10-04T23:49:21.300Z,99.90
2022-10-04T23:54:24.518Z,99.90
2022-10-04T23:59:27.641Z,99.90
